createdAt,value
2018-03-04T00:00:54.215Z,0.20
2018-03-04T00:03:31.848Z,0.10
2018-03-04T00:06:04.691Z,0.00
2018-03-04T00:08:38.430Z,0.00
2018-03-04T00:11:09.138Z,0.00
2018-03-04T00:13:40.246Z,0.00
2018-03-04T00:16:11.893Z,-0.10
2018-03-04T00:18:43.209Z,-0.20
2018-03-04T00:21:13.914Z,-0.20
2018-03-04T00:24:02.652Z,-0.20
2018-03-04T00:26:40.549Z,-0.30
2018-03-04T00:29:11.215Z,-0.10
2018-03-04T00:31:42.579Z,-0.10
2018-03-04T00:34:15.053Z,0.00
2018-03-04T00:36:47.572Z,0.00
2018-03-04T00:39:18.500Z,0.00
2018-03-04T00:41:50.397Z,0.20
2018-03-04T00:44:21.361Z,0.40
2018-03-04T00:46:53.672Z,0.50
2018-03-04T00:49:24.244Z,0.50
2018-03-04T00:51:59.539Z,0.80
2018-03-04T00:54:30.180Z,0.90
2018-03-04T00:57:02.021Z,0.60
2018-03-04T00:59:32.728Z,0.80
2018-03-04T01:02:03.523Z,0.90
2018-03-04T01:04:34.020Z,1.30
2018-03-04T01:07:05.838Z,1.20
2018-03-04T01:09:40.140Z,0.70
2018-03-04T01:12:11.564Z,0.30
2018-03-04T01:14:54.769Z,-0.10
2018-03-04T01:17:26.133Z,0.20
2018-03-04T01:19:58.960Z,0.30
2018-03-04T01:22:29.555Z,0.30
2018-03-04T01:25:01.127Z,0.60
2018-03-04T01:27:32.112Z,0.80
2018-03-04T01:30:03.745Z,0.30
2018-03-04T01:32:36.085Z,0.20
2018-03-04T01:35:08.574Z,0.20
2018-03-04T01:37:39.529Z,0.30
2018-03-04T01:40:11.070Z,0.60
2018-03-04T01:42:42.966Z,0.60
2018-03-04T01:45:13.797Z,0.40
2018-03-04T01:47:45.010Z,0.70
2018-03-04T01:50:15.553Z,0.70
2018-03-04T01:52:47.877Z,0.80
2018-03-04T01:55:19.758Z,1.10
2018-03-04T01:57:52.521Z,0.40
2018-03-04T02:00:24.911Z,0.30
2018-03-04T02:02:55.949Z,0.40
2018-03-04T02:05:26.659Z,0.60
2018-03-04T02:07:59.879Z,0.80
2018-03-04T02:10:31.585Z,0.80
2018-03-04T02:13:02.190Z,0.90
2018-03-04T02:15:34.508Z,0.70
2018-03-04T02:18:07.005Z,0.80
2018-03-04T02:20:43.581Z,1.00
2018-03-04T02:23:14.127Z,1.00
2018-03-04T02:25:44.678Z,1.00
2018-03-04T02:28:18.992Z,1.00
2018-03-04T02:30:50.497Z,1.20
2018-03-04T02:33:23.699Z,1.10
2018-03-04T02:35:54.139Z,1.00
2018-03-04T02:38:25.944Z,1.10
2018-03-04T02:40:56.768Z,1.00
2018-03-04T02:43:27.405Z,0.90
2018-03-04T02:45:58.428Z,1.10
2018-03-04T02:48:29.708Z,1.10
2018-03-04T02:51:01.826Z,1.10
2018-03-04T02:53:36.423Z,1.20
2018-03-04T02:56:07.404Z,1.00
2018-03-04T02:58:42.054Z,0.90
2018-03-04T03:01:14.778Z,0.90
2018-03-04T03:03:50.568Z,0.90
2018-03-04T03:06:24.733Z,0.70
2018-03-04T03:08:57.017Z,0.70
2018-03-04T03:11:30.050Z,1.00
2018-03-04T03:14:03.248Z,1.00
2018-03-04T03:16:34.043Z,1.00
2018-03-04T03:19:06.269Z,0.90
2018-03-04T03:21:36.884Z,0.80
2018-03-04T03:24:11.123Z,0.80
2018-03-04T03:26:41.454Z,0.80
2018-03-04T03:29:12.136Z,0.90
2018-03-04T03:31:46.688Z,0.30
2018-03-04T03:34:24.095Z,0.30
2018-03-04T03:36:54.690Z,0.00
2018-03-04T03:39:28.387Z,0.20
2018-03-04T03:41:59.269Z,0.30
2018-03-04T03:44:32.471Z,0.20
2018-03-04T03:47:03.234Z,0.30
2018-03-04T03:49:33.575Z,0.40
2018-03-04T03:52:04.832Z,0.50
2018-03-04T03:54:36.788Z,0.50
2018-03-04T03:57:10.207Z,0.20
2018-03-04T03:59:42.763Z,0.20
2018-03-04T04:02:13.604Z,0.00
2018-03-04T04:04:45.122Z,0.40
2018-03-04T04:07:15.963Z,0.40
2018-03-04T04:09:47.321Z,0.60
2018-03-04T04:12:19.252Z,0.60
2018-03-04T04:14:49.678Z,0.50
2018-03-04T04:17:21.310Z,0.50
2018-03-04T04:19:53.859Z,0.40
2018-03-04T04:22:24.415Z,0.70
2018-03-04T04:24:58.257Z,0.80
2018-03-04T04:27:28.525Z,0.90
2018-03-04T04:30:01.656Z,1.00
2018-03-04T04:32:35.952Z,1.00
2018-03-04T04:35:07.204Z,0.00
2018-03-04T04:37:48.638Z,0.00
2018-03-04T04:40:24.425Z,0.10
2018-03-04T04:42:57.650Z,0.00
2018-03-04T04:45:29.564Z,0.00
2018-03-04T04:48:01.580Z,-0.10
2018-03-04T04:50:32.860Z,-0.10
2018-03-04T04:53:04.833Z,0.20
2018-03-04T04:55:38.416Z,0.30
2018-03-04T04:58:08.947Z,0.50
2018-03-04T05:00:40.184Z,0.60
2018-03-04T05:03:11.037Z,0.60
2018-03-04T05:05:41.926Z,0.60
2018-03-04T05:08:13.467Z,0.60
2018-03-04T05:10:45.900Z,0.80
2018-03-04T05:13:17.567Z,0.70
2018-03-04T05:15:47.839Z,0.50
2018-03-04T05:18:22.666Z,0.60
2018-03-04T05:20:54.851Z,0.50
2018-03-04T05:23:26.315Z,0.40
2018-03-04T05:25:56.694Z,0.30
2018-03-04T05:28:28.274Z,0.10
2018-03-04T05:31:02.124Z,0.20
2018-03-04T05:33:33.629Z,0.20
2018-03-04T05:36:06.894Z,0.10
2018-03-04T05:38:41.968Z,0.00
2018-03-04T05:41:13.698Z,0.20
2018-03-04T05:43:44.976Z,0.10
2018-03-04T05:46:18.953Z,0.40
2018-03-04T05:48:53.324Z,0.40
2018-03-04T05:51:35.704Z,0.30
2018-03-04T05:54:10.396Z,0.30
2018-03-04T05:56:42.159Z,0.30
2018-03-04T05:59:12.942Z,0.10
2018-03-04T06:01:44.757Z,-0.10
2018-03-04T06:04:16.980Z,0.00
2018-03-04T06:06:49.916Z,0.30
2018-03-04T06:09:20.784Z,0.30
2018-03-04T06:11:51.295Z,0.60
2018-03-04T06:14:22.610Z,0.80
2018-03-04T06:16:55.244Z,0.80
2018-03-04T06:19:26.695Z,0.50
2018-03-04T06:22:01.095Z,0.20
2018-03-04T06:24:33.246Z,0.20
2018-03-04T06:27:05.103Z,0.40
2018-03-04T06:29:37.572Z,0.70
2018-03-04T06:32:08.131Z,0.80
2018-03-04T06:34:41.652Z,0.90
2018-03-04T06:37:13.204Z,1.20
2018-03-04T06:39:47.000Z,1.40
2018-03-04T06:42:20.344Z,1.60
2018-03-04T06:44:50.883Z,1.60
2018-03-04T06:47:25.569Z,2.00
2018-03-04T06:49:57.342Z,2.30
2018-03-04T06:52:28.693Z,2.20
2018-03-04T06:54:59.674Z,2.20
2018-03-04T06:57:31.319Z,2.40
2018-03-04T07:00:02.128Z,2.60
2018-03-04T07:02:33.519Z,2.70
2018-03-04T07:05:04.821Z,2.40
2018-03-04T07:07:35.810Z,2.40
2018-03-04T07:10:06.134Z,2.60
2018-03-04T07:12:39.289Z,2.20
2018-03-04T07:15:09.961Z,2.10
2018-03-04T07:17:41.269Z,4.20
2018-03-04T07:20:14.795Z,4.20
2018-03-04T07:22:45.380Z,5.20
2018-03-04T07:25:15.935Z,7.70
2018-03-04T07:27:47.256Z,6.60
2018-03-04T07:30:20.353Z,3.10
2018-03-04T07:32:50.894Z,3.10
2018-03-04T07:35:22.613Z,3.50
2018-03-04T07:37:56.844Z,4.10
2018-03-04T07:40:27.589Z,4.70
2018-03-04T07:42:58.565Z,7.40
2018-03-04T07:45:32.820Z,8.20
2018-03-04T07:48:08.451Z,10.90
2018-03-04T07:50:40.016Z,12.00
2018-03-04T07:53:10.817Z,11.80
2018-03-04T07:55:41.175Z,12.80
2018-03-04T07:58:17.624Z,11.70
2018-03-04T08:00:48.396Z,11.70
2018-03-04T08:03:27.041Z,12.80
2018-03-04T08:06:10.427Z,15.40
2018-03-04T08:08:45.134Z,15.50
2018-03-04T08:11:17.728Z,17.30
2018-03-04T08:13:48.334Z,16.50
2018-03-04T08:16:21.675Z,14.60
2018-03-04T08:18:52.169Z,11.90
2018-03-04T08:21:25.135Z,10.00
2018-03-04T08:23:56.007Z,8.60
2018-03-04T08:27:40.325Z,7.40
2018-03-04T08:30:17.360Z,6.30
2018-03-04T08:32:49.126Z,5.60
2018-03-04T08:35:28.850Z,5.30
2018-03-04T08:38:00.926Z,5.30
2018-03-04T08:40:38.672Z,5.40
2018-03-04T08:43:09.578Z,5.30
2018-03-04T08:45:40.462Z,5.50
2018-03-04T08:48:13.251Z,5.70
2018-03-04T08:50:44.176Z,6.60
2018-03-04T08:53:18.191Z,7.20
2018-03-04T08:55:50.770Z,8.10
2018-03-04T08:58:24.732Z,9.60
2018-03-04T09:00:56.493Z,9.50
2018-03-04T09:03:27.194Z,11.20
2018-03-04T09:06:01.123Z,12.00
2018-03-04T09:08:32.831Z,12.30
2018-03-04T09:11:06.666Z,11.60
2018-03-04T09:13:40.821Z,11.50
2018-03-04T09:16:13.944Z,11.70
2018-03-04T09:18:46.665Z,12.00
2018-03-04T09:21:19.508Z,12.20
2018-03-04T09:23:56.944Z,12.40
2018-03-04T09:26:28.947Z,11.80
2018-03-04T09:29:04.684Z,11.50
2018-03-04T09:31:38.998Z,12.20
2018-03-04T09:34:10.140Z,8.60
2018-03-04T09:36:40.371Z,8.50
2018-03-04T09:39:12.547Z,7.10
2018-03-04T09:41:42.763Z,7.00
2018-03-04T09:44:14.076Z,7.70
2018-03-04T09:46:47.288Z,7.70
2018-03-04T09:49:18.227Z,6.90
2018-03-04T09:51:48.556Z,6.90
2018-03-04T09:54:19.172Z,7.00
2018-03-04T09:56:54.209Z,6.90
2018-03-04T09:59:34.690Z,7.40
2018-03-04T10:02:06.089Z,8.80
2018-03-04T10:08:17.652Z,10.00
2018-03-04T10:10:50.315Z,9.40
2018-03-04T10:13:24.509Z,9.40
2018-03-04T10:15:54.903Z,8.30
2018-03-04T10:18:25.062Z,8.70
2018-03-04T10:20:55.343Z,10.00
2018-03-04T10:23:26.320Z,9.00
2018-03-04T10:25:56.637Z,9.00
2018-03-04T10:28:27.031Z,8.80
2018-03-04T10:30:57.831Z,8.70
2018-03-04T10:33:28.813Z,8.70
2018-03-04T10:35:59.279Z,9.50
2018-03-04T10:38:31.546Z,8.70
2018-03-04T10:41:56.132Z,8.80
2018-03-04T10:44:26.838Z,8.90
2018-03-04T10:47:18.947Z,9.50
2018-03-04T10:49:49.320Z,9.50
2018-03-04T10:52:20.551Z,8.70
2018-03-04T10:54:56.060Z,8.70
2018-03-04T10:57:38.246Z,9.00
2018-03-04T11:00:13.794Z,8.80
2018-03-04T11:04:19.475Z,8.80
2018-03-04T11:15:59.259Z,9.30
2018-03-04T11:18:47.065Z,9.50
2018-03-04T11:21:21.031Z,10.70
2018-03-04T11:23:52.647Z,11.00
2018-03-04T11:26:23.176Z,11.00
2018-03-04T11:28:54.170Z,9.90
2018-03-04T11:31:34.889Z,9.00
2018-03-04T11:34:28.321Z,9.30
2018-03-04T11:37:00.202Z,9.40
2018-03-04T11:39:30.263Z,9.50
2018-03-04T11:43:01.903Z,10.20
2018-03-04T11:45:53.753Z,10.50
2018-03-04T11:49:20.613Z,10.40
2018-03-04T11:51:51.019Z,10.30
2018-03-04T11:54:22.234Z,10.40
2018-03-04T11:56:53.992Z,10.30
2018-03-04T12:02:26.863Z,10.40
2018-03-04T12:04:56.982Z,10.80
2018-03-04T12:07:29.858Z,10.80
2018-03-04T12:10:00.237Z,10.80
2018-03-04T12:12:32.041Z,11.30
2018-03-04T12:15:03.267Z,12.00
2018-03-04T12:17:39.856Z,12.40
2018-03-04T12:20:13.584Z,12.30
2018-03-04T12:22:45.999Z,12.20
2018-03-04T12:25:17.119Z,12.20
2018-03-04T12:27:47.372Z,12.20
2018-03-04T12:30:17.901Z,12.70
2018-03-04T12:33:00.237Z,12.80
2018-03-04T12:35:43.915Z,11.50
2018-03-04T12:38:27.189Z,11.50
2018-03-04T12:40:58.559Z,10.90
2018-03-04T12:43:30.374Z,11.00
2018-03-04T12:46:01.274Z,11.50
2018-03-04T12:51:46.582Z,11.90
2018-03-04T13:01:36.584Z,12.10
2018-03-04T13:04:06.957Z,12.30
2018-03-04T13:07:08.274Z,13.00
2018-03-04T13:09:48.496Z,13.00
2018-03-04T13:12:19.260Z,13.50
2018-03-04T13:14:56.820Z,13.60
2018-03-04T13:17:31.745Z,13.90
2018-03-04T13:20:02.823Z,13.60
2018-03-04T13:22:34.094Z,13.90
2018-03-04T13:25:04.519Z,13.90
2018-03-04T13:27:54.587Z,12.10
2018-03-04T13:30:27.442Z,12.00
2018-03-04T13:33:03.610Z,11.80
2018-03-04T13:35:36.514Z,11.60
2018-03-04T13:38:28.487Z,11.40
2018-03-04T13:41:22.288Z,11.20
2018-03-04T13:43:57.758Z,11.30
2018-03-04T13:46:29.812Z,11.40
2018-03-04T13:49:00.425Z,11.40
2018-03-04T13:51:38.057Z,11.00
2018-03-04T13:54:09.211Z,11.20
2018-03-04T13:56:40.531Z,11.40
2018-03-04T13:59:27.499Z,11.40
2018-03-04T14:01:58.052Z,11.30
2018-03-04T14:04:28.455Z,11.00
2018-03-04T14:07:32.869Z,11.10
2018-03-04T14:10:12.986Z,11.10
2018-03-04T14:12:44.352Z,11.20
2018-03-04T14:15:21.902Z,11.10
2018-03-04T14:18:46.425Z,10.80
2018-03-04T14:21:37.038Z,10.90
2018-03-04T14:24:17.412Z,11.00
2018-03-04T14:26:47.797Z,10.90
2018-03-04T14:29:19.064Z,10.70
2018-03-04T14:31:52.425Z,10.70
2018-03-04T14:34:23.063Z,10.70
2018-03-04T14:36:54.526Z,10.50
2018-03-04T14:39:26.683Z,10.60
2018-03-04T14:41:56.780Z,10.80
2018-03-04T14:44:36.036Z,10.70
2018-03-04T14:47:12.720Z,10.60
2018-03-04T14:53:30.957Z,10.50
2018-03-04T14:59:43.512Z,10.20
2018-03-04T15:02:14.788Z,10.20
2018-03-04T15:04:51.166Z,10.20
2018-03-04T15:07:42.686Z,10.20
2018-03-04T15:10:12.972Z,10.10
2018-03-04T15:12:45.976Z,10.00
2018-03-04T15:15:16.605Z,9.90
2018-03-04T15:17:46.734Z,9.80
2018-03-04T15:20:17.166Z,9.70
2018-03-04T15:22:47.300Z,9.60
2018-03-04T15:25:18.184Z,9.60
2018-03-04T15:27:49.039Z,9.60
2018-03-04T15:30:21.113Z,9.60
2018-03-04T15:32:51.216Z,9.60
2018-03-04T15:35:21.376Z,9.50
2018-03-04T15:37:51.456Z,9.60
2018-03-04T15:40:21.542Z,9.50
2018-03-04T15:43:08.330Z,9.60
2018-03-04T15:45:39.992Z,9.40
2018-03-04T15:48:10.794Z,9.30
2018-03-04T15:50:41.201Z,9.20
2018-03-04T15:53:18.945Z,9.30
2018-03-04T15:55:49.311Z,9.30
2018-03-04T15:58:19.452Z,9.20
2018-03-04T16:00:52.578Z,9.10
2018-03-04T16:03:23.853Z,9.00
2018-03-04T16:05:55.311Z,8.80
2018-03-04T16:08:44.075Z,8.80
2018-03-04T16:11:15.318Z,8.60
2018-03-04T16:14:07.248Z,8.60
2018-03-04T16:20:42.618Z,8.20
2018-03-04T16:23:13.114Z,8.20
2018-03-04T16:25:43.252Z,8.00
2018-03-04T16:28:17.639Z,7.90
2018-03-04T16:30:52.625Z,7.80
2018-03-04T16:33:30.107Z,7.80
2018-03-04T16:36:01.247Z,7.90
2018-03-04T16:38:33.483Z,7.90
2018-03-04T16:41:04.352Z,7.80
2018-03-04T16:43:34.501Z,7.60
2018-03-04T16:46:04.818Z,7.30
2018-03-04T16:48:34.916Z,7.20
2018-03-04T16:51:05.039Z,7.00
2018-03-04T16:53:35.500Z,6.90
2018-03-04T16:56:06.164Z,6.90
2018-03-04T16:58:36.554Z,7.00
2018-03-04T17:01:07.385Z,6.90
2018-03-04T17:03:37.530Z,6.60
2018-03-04T17:06:08.435Z,5.60
2018-03-04T17:08:39.196Z,5.60
2018-03-04T17:11:09.402Z,5.60
2018-03-04T17:13:39.623Z,5.90
2018-03-04T17:16:17.639Z,6.10
2018-03-04T17:18:57.045Z,6.00
2018-03-04T17:21:27.978Z,5.90
2018-03-04T17:23:58.294Z,5.70
2018-03-04T17:26:31.885Z,5.60
2018-03-04T17:29:03.235Z,5.50
2018-03-04T17:31:34.040Z,5.30
2018-03-04T17:34:06.834Z,5.50
2018-03-04T17:36:38.814Z,5.30
2018-03-04T17:39:10.095Z,5.30
2018-03-04T17:44:23.146Z,5.00
2018-03-04T17:46:57.811Z,4.90
2018-03-04T17:49:31.242Z,4.90
2018-03-04T17:52:09.533Z,4.70
2018-03-04T17:54:54.289Z,4.50
2018-03-04T17:57:26.969Z,4.40
2018-03-04T17:59:59.418Z,4.20
2018-03-04T18:03:57.311Z,4.00
2018-03-04T18:06:28.676Z,3.90
2018-03-04T18:08:59.679Z,3.60
2018-03-04T18:11:30.206Z,3.80
2018-03-04T18:14:00.756Z,3.70
2018-03-04T18:16:33.907Z,3.50
2018-03-04T18:19:05.531Z,3.20
2018-03-04T18:21:40.543Z,3.20
2018-03-04T18:24:40.797Z,3.30
2018-03-04T18:27:21.360Z,3.30
2018-03-04T18:29:56.919Z,3.10
2018-03-04T18:32:27.328Z,3.00
2018-03-04T18:34:58.390Z,3.00
2018-03-04T18:37:29.392Z,2.90
2018-03-04T18:40:04.642Z,3.00
2018-03-04T18:42:36.373Z,3.00
2018-03-04T18:45:06.969Z,3.10
2018-03-04T18:47:44.686Z,3.50
2018-03-04T18:50:16.631Z,3.20
2018-03-04T18:52:47.483Z,2.90
2018-03-04T18:55:18.523Z,2.80
2018-03-04T18:57:50.981Z,2.60
2018-03-04T19:00:21.295Z,2.50
2018-03-04T19:02:51.936Z,2.60
2018-03-04T19:05:22.429Z,2.70
2018-03-04T19:07:52.644Z,2.50
2018-03-04T19:10:25.131Z,2.50
2018-03-04T19:12:55.720Z,2.30
2018-03-04T19:15:26.916Z,2.10
2018-03-04T19:17:58.175Z,2.20
2018-03-04T19:20:31.305Z,2.40
2018-03-04T19:23:02.208Z,2.80
2018-03-04T19:25:35.155Z,2.40
2018-03-04T19:28:05.663Z,2.30
2018-03-04T19:30:36.052Z,2.50
2018-03-04T19:33:07.407Z,2.50
2018-03-04T19:35:38.092Z,2.20
2018-03-04T19:38:10.679Z,2.20
2018-03-04T19:40:42.169Z,2.50
2018-03-04T19:43:13.523Z,2.90
2018-03-04T19:45:44.347Z,3.00
2018-03-04T19:48:15.327Z,3.00
2018-03-04T19:52:05.635Z,2.70
2018-03-04T19:54:36.853Z,2.50
2018-03-04T19:57:07.426Z,2.10
2018-03-04T19:59:39.710Z,1.80
2018-03-04T20:02:36.644Z,1.80
2018-03-04T20:05:07.618Z,1.80
2018-03-04T20:07:37.932Z,2.00
2018-03-04T20:10:08.599Z,2.10
2018-03-04T20:12:41.946Z,1.90
2018-03-04T20:15:12.258Z,1.90
2018-03-04T20:17:44.018Z,1.90
2018-03-04T20:20:14.735Z,1.90
2018-03-04T20:22:45.866Z,1.50
2018-03-04T20:25:17.519Z,1.30
2018-03-04T20:27:49.843Z,1.30
2018-03-04T20:30:20.128Z,1.20
2018-03-04T20:32:51.193Z,1.30
2018-03-04T20:35:23.331Z,1.30
2018-03-04T20:37:54.168Z,1.30
2018-03-04T20:40:25.228Z,1.50
2018-03-04T20:43:04.333Z,1.50
2018-03-04T20:45:36.702Z,1.50
2018-03-04T20:48:08.477Z,1.60
2018-03-04T20:50:57.753Z,1.70
2018-03-04T20:53:29.019Z,1.60
2018-03-04T20:55:59.358Z,1.70
2018-03-04T20:58:32.901Z,1.90
2018-03-04T21:01:03.822Z,1.90
2018-03-04T21:03:34.131Z,1.60
2018-03-04T21:06:04.375Z,1.40
2018-03-04T21:08:34.958Z,1.20
2018-03-04T21:11:05.338Z,1.10
2018-03-04T21:13:35.482Z,1.10
2018-03-04T21:16:07.728Z,1.20
2018-03-04T21:18:41.149Z,1.30
2018-03-04T21:21:11.795Z,1.20
2018-03-04T21:23:43.971Z,1.20
2018-03-04T21:26:14.935Z,1.20
2018-03-04T21:28:45.315Z,1.20
2018-03-04T21:31:15.467Z,1.30
2018-03-04T21:33:45.600Z,1.20
2018-03-04T21:36:17.547Z,1.00
2018-03-04T21:38:55.184Z,1.00
2018-03-04T21:41:27.982Z,0.90
2018-03-04T21:44:01.967Z,0.60
2018-03-04T21:46:32.474Z,0.40
2018-03-04T21:49:03.068Z,0.50
2018-03-04T21:51:34.770Z,0.60
2018-03-04T21:54:06.134Z,0.70
2018-03-04T21:56:36.860Z,0.70
2018-03-04T21:59:07.883Z,0.70
2018-03-04T22:01:38.031Z,0.90
2018-03-04T22:04:08.956Z,1.10
2018-03-04T22:06:40.145Z,1.40
2018-03-04T22:09:10.745Z,1.00
2018-03-04T22:11:40.880Z,0.80
2018-03-04T22:14:11.141Z,0.90
2018-03-04T22:16:43.007Z,0.90
2018-03-04T22:19:13.884Z,1.00
2018-03-04T22:21:44.296Z,1.00
2018-03-04T22:24:14.377Z,1.00
2018-03-04T22:26:45.481Z,1.00
2018-03-04T22:29:16.594Z,1.00
2018-03-04T22:31:46.685Z,0.80
2018-03-04T22:34:17.539Z,0.80
2018-03-04T22:36:48.132Z,0.80
2018-03-04T22:39:18.192Z,1.00
2018-03-04T22:41:48.413Z,1.20
2018-03-04T22:44:18.619Z,1.20
2018-03-04T22:46:53.508Z,1.30
2018-03-04T22:49:25.560Z,1.30
2018-03-04T22:51:56.084Z,1.30
2018-03-04T22:54:26.725Z,1.40
2018-03-04T22:56:57.259Z,1.50
2018-03-04T22:59:27.872Z,1.60
2018-03-04T23:01:58.209Z,1.70
2018-03-04T23:04:29.158Z,1.80
2018-03-04T23:06:59.504Z,2.00
2018-03-04T23:09:31.012Z,2.00
2018-03-04T23:12:01.352Z,1.90
2018-03-04T23:14:31.453Z,1.90
2018-03-04T23:17:02.791Z,1.80
2018-03-04T23:19:33.367Z,1.80
2018-03-04T23:22:04.834Z,1.60
2018-03-04T23:24:35.644Z,1.70
2018-03-04T23:27:06.526Z,1.80
2018-03-04T23:29:37.007Z,1.70
2018-03-04T23:32:08.298Z,1.70
2018-03-04T23:34:38.760Z,1.70
2018-03-04T23:37:09.077Z,1.50
2018-03-04T23:39:39.448Z,1.60
2018-03-04T23:42:09.520Z,1.80
2018-03-04T23:44:40.403Z,2.10
2018-03-04T23:47:10.648Z,2.10
2018-03-04T23:49:40.753Z,1.80
2018-03-04T23:52:10.988Z,1.40
2018-03-04T23:54:41.167Z,1.20
2018-03-04T23:57:11.385Z,1.20
2018-03-04T23:59:41.532Z,1.20
